Clarendon Springs, Vermont
Current Conditions -  °F | °C
As of 3:55 AM on Friday 28 Nov 2014 (Local Time) from KRUT Reporting Station
Overcast Overcast  
Wind Chill: 17°   Ceiling: 800
Heat Index: 23°   Visibility: 10mi
Dew Point: 21°   Wind: 5mph
Humidity: 93%   Direction: 360°N
Pressure: 30.01"   Gusts: NA
Location:  43.5746°N, 73.0567°W
Report Text: KRUT 280855Z 36004KT 10SM BKN008 BKN018 OVC070 M05/M06 A3001 RMK AO1 52007
Loading
Personal Weather Stations






























Interactive Weather Map New forecast layout! Learn more

10-Day Weather Forecast

Advertisements
Track Severe Weather on mobile